createdAt,value
2018-02-16T00:01:02.832Z,0.20
2018-02-16T00:03:30.372Z,0.20
2018-02-16T00:05:58.700Z,0.20
2018-02-16T00:08:26.244Z,0.20
2018-02-16T00:10:54.591Z,0.30
2018-02-16T00:13:22.136Z,0.30
2018-02-16T00:15:50.443Z,0.30
2018-02-16T00:18:18.007Z,0.30
2018-02-16T00:20:45.558Z,0.40
2018-02-16T00:23:13.207Z,0.40
2018-02-16T00:25:41.514Z,0.40
2018-02-16T00:28:09.092Z,0.40
2018-02-16T00:30:36.634Z,0.40
2018-02-16T00:33:04.960Z,0.40
2018-02-16T00:35:32.503Z,0.40
2018-02-16T00:38:00.826Z,0.40
2018-02-16T00:40:28.368Z,0.40
2018-02-16T00:42:56.737Z,0.40
2018-02-16T00:45:24.283Z,0.40
2018-02-16T00:47:51.827Z,0.50
2018-02-16T00:50:19.396Z,0.50
2018-02-16T00:52:46.955Z,0.50
2018-02-16T00:55:14.519Z,0.50
2018-02-16T00:57:42.073Z,0.60
2018-02-16T01:00:10.411Z,0.60
2018-02-16T01:02:37.968Z,0.60
2018-02-16T01:05:05.539Z,0.60
2018-02-16T01:07:33.092Z,0.60
2018-02-16T01:10:00.655Z,0.60
2018-02-16T01:12:28.969Z,0.70
2018-02-16T01:14:56.532Z,0.60
2018-02-16T01:17:24.072Z,0.70
2018-02-16T01:19:51.658Z,0.70
2018-02-16T01:22:19.973Z,0.70
2018-02-16T01:24:47.517Z,0.70
2018-02-16T01:27:15.848Z,0.70
2018-02-16T01:29:43.395Z,0.70
2018-02-16T01:32:10.959Z,0.70
2018-02-16T01:34:39.263Z,0.80
2018-02-16T01:37:06.815Z,0.80
2018-02-16T01:39:35.133Z,0.80
2018-02-16T01:42:02.715Z,0.80
2018-02-16T01:44:30.263Z,0.80
2018-02-16T01:46:57.861Z,0.80
2018-02-16T01:49:25.408Z,0.80
2018-02-16T01:51:52.959Z,0.80
2018-02-16T01:54:21.296Z,0.90
2018-02-16T01:56:48.845Z,0.90
2018-02-16T01:59:16.407Z,0.90
2018-02-16T02:01:43.947Z,0.90
2018-02-16T02:04:11.508Z,0.90
2018-02-16T02:06:39.059Z,0.90
2018-02-16T02:09:06.625Z,0.90
2018-02-16T02:11:34.167Z,1.00
2018-02-16T02:14:01.724Z,1.00
2018-02-16T02:16:30.030Z,0.90
2018-02-16T02:18:57.609Z,0.90
2018-02-16T02:21:25.150Z,1.00
2018-02-16T02:23:53.460Z,0.90
2018-02-16T02:26:21.024Z,0.90
2018-02-16T02:28:48.580Z,1.00
2018-02-16T02:31:16.902Z,1.00
2018-02-16T02:33:44.447Z,1.00
2018-02-16T02:36:12.776Z,1.00
2018-02-16T02:38:40.911Z,1.00
2018-02-16T02:41:09.245Z,1.00
2018-02-16T02:43:36.784Z,1.00
2018-02-16T02:46:05.130Z,1.00
2018-02-16T02:48:32.667Z,1.00
2018-02-16T02:51:00.221Z,1.00
2018-02-16T02:53:27.783Z,1.00
2018-02-16T02:55:55.337Z,1.00
2018-02-16T02:58:22.907Z,1.00
2018-02-16T03:00:51.232Z,1.00
2018-02-16T03:03:18.804Z,0.90
2018-02-16T03:05:46.339Z,1.00
2018-02-16T03:08:13.897Z,1.00
2018-02-16T03:10:41.432Z,1.00
2018-02-16T03:13:08.986Z,1.00
2018-02-16T03:15:36.527Z,1.00
2018-02-16T03:18:04.108Z,1.00
2018-02-16T03:20:31.647Z,1.00
2018-02-16T03:22:59.184Z,1.10
2018-02-16T03:25:26.744Z,1.10
2018-02-16T03:27:54.287Z,1.10
2018-02-16T03:30:21.844Z,1.10
2018-02-16T03:32:49.382Z,1.10
2018-02-16T03:35:17.707Z,1.20
2018-02-16T03:37:45.248Z,1.20
2018-02-16T03:40:12.810Z,1.20
2018-02-16T03:42:40.342Z,1.20
2018-02-16T03:45:08.684Z,1.20
2018-02-16T03:47:36.991Z,1.20
2018-02-16T03:50:04.539Z,1.20
2018-02-16T03:52:32.100Z,1.20
2018-02-16T03:54:59.639Z,1.20
2018-02-16T03:57:28.706Z,1.20
2018-02-16T03:59:56.243Z,1.20
2018-02-16T04:02:23.813Z,1.30
2018-02-16T04:04:51.350Z,1.20
2018-02-16T04:07:18.930Z,1.30
2018-02-16T04:09:47.243Z,1.30
2018-02-16T04:12:14.802Z,1.30
2018-02-16T04:14:42.349Z,1.30
2018-02-16T04:17:09.920Z,1.30
2018-02-16T04:19:37.454Z,1.30
2018-02-16T04:22:05.779Z,1.30
2018-02-16T04:24:33.451Z,1.30
2018-02-16T04:27:01.798Z,1.30
2018-02-16T04:29:29.340Z,1.30
2018-02-16T04:31:57.639Z,1.30
2018-02-16T04:34:25.191Z,1.30
2018-02-16T04:36:53.491Z,1.30
2018-02-16T04:39:21.959Z,1.40
2018-02-16T04:41:49.494Z,1.40
2018-02-16T04:44:17.058Z,1.40
2018-02-16T04:46:44.616Z,1.30
2018-02-16T04:49:12.171Z,1.30
2018-02-16T04:51:39.715Z,1.40
2018-02-16T04:54:07.284Z,1.40
2018-02-16T04:56:34.830Z,1.40
2018-02-16T04:59:02.415Z,1.40
2018-02-16T05:01:30.749Z,1.40
2018-02-16T05:03:58.297Z,1.40
2018-02-16T05:06:25.855Z,1.40
2018-02-16T05:08:53.426Z,1.40
2018-02-16T05:11:20.983Z,1.30
2018-02-16T05:13:48.547Z,1.30
2018-02-16T05:16:16.109Z,1.30
2018-02-16T05:18:43.651Z,1.30
2018-02-16T05:21:11.238Z,1.30
2018-02-16T05:23:38.821Z,1.30
2018-02-16T05:26:06.421Z,1.30
2018-02-16T05:28:33.999Z,1.30
2018-02-16T05:31:01.584Z,1.30
2018-02-16T05:33:29.119Z,1.20
2018-02-16T05:35:56.660Z,1.30
2018-02-16T05:38:25.014Z,1.20
2018-02-16T05:40:52.563Z,1.20
2018-02-16T05:43:20.119Z,1.20
2018-02-16T05:45:47.659Z,1.20
2018-02-16T05:48:15.209Z,1.20
2018-02-16T05:50:43.519Z,1.20
2018-02-16T05:53:11.078Z,1.20
2018-02-16T05:55:39.400Z,1.20
2018-02-16T05:58:06.960Z,1.20
2018-02-16T06:00:34.510Z,1.20
2018-02-16T06:03:02.864Z,1.20
2018-02-16T06:05:30.406Z,1.20
2018-02-16T06:07:57.949Z,1.10
2018-02-16T06:10:26.270Z,1.10
2018-02-16T06:12:53.819Z,1.10
2018-02-16T06:15:21.412Z,1.10
2018-02-16T06:17:48.946Z,1.10
2018-02-16T06:20:17.288Z,1.10
2018-02-16T06:22:44.822Z,1.10
2018-02-16T06:25:12.388Z,1.10
2018-02-16T06:27:39.928Z,1.10
2018-02-16T06:30:07.515Z,1.10
2018-02-16T06:32:35.820Z,1.00
2018-02-16T06:35:03.361Z,1.00
2018-02-16T06:37:30.931Z,1.00
2018-02-16T06:39:58.471Z,0.90
2018-02-16T06:42:26.031Z,0.90
2018-02-16T06:44:53.584Z,0.90
2018-02-16T06:47:21.142Z,0.90
2018-02-16T06:49:49.439Z,0.90
2018-02-16T06:52:16.995Z,0.90
2018-02-16T06:54:45.295Z,0.90
2018-02-16T06:57:12.851Z,0.90
2018-02-16T06:59:41.161Z,1.00
2018-02-16T07:02:08.754Z,1.00
2018-02-16T07:04:36.294Z,1.10
2018-02-16T07:07:03.867Z,1.10
2018-02-16T07:09:32.173Z,1.20
2018-02-16T07:11:59.712Z,1.20
2018-02-16T07:14:27.278Z,1.10
2018-02-16T07:16:54.818Z,1.10
2018-02-16T07:19:22.380Z,1.10
2018-02-16T07:21:50.683Z,1.20
2018-02-16T07:24:18.240Z,1.20
2018-02-16T07:26:45.780Z,1.30
2018-02-16T07:29:13.362Z,1.30
2018-02-16T07:31:40.903Z,1.30
2018-02-16T07:34:09.243Z,1.30
2018-02-16T07:36:36.785Z,1.30
2018-02-16T07:39:04.352Z,1.40
2018-02-16T07:41:32.660Z,1.50
2018-02-16T07:44:00.219Z,1.50
2018-02-16T07:46:27.759Z,1.50
2018-02-16T07:48:55.339Z,1.50
2018-02-16T07:51:22.874Z,1.40
2018-02-16T07:53:50.406Z,1.40
2018-02-16T07:56:17.959Z,1.40
2018-02-16T07:58:46.262Z,1.60
2018-02-16T08:01:13.845Z,1.60
2018-02-16T08:03:41.383Z,1.60
2018-02-16T08:06:09.704Z,1.60
2018-02-16T08:08:37.236Z,1.60
2018-02-16T08:11:04.787Z,1.60
2018-02-16T08:13:32.322Z,1.60
2018-02-16T08:15:59.875Z,1.60
2018-02-16T08:18:28.178Z,1.70
2018-02-16T08:20:56.504Z,1.80
2018-02-16T08:23:24.060Z,1.80
2018-02-16T08:25:51.614Z,1.80
2018-02-16T08:28:19.162Z,1.80
2018-02-16T08:30:47.507Z,2.10
2018-02-16T08:33:15.048Z,2.10
2018-02-16T08:35:42.595Z,2.20
2018-02-16T08:38:10.917Z,2.60
2018-02-16T08:40:38.457Z,2.50
2018-02-16T08:43:06.024Z,2.70
2018-02-16T08:45:34.332Z,2.60
2018-02-16T08:48:01.884Z,2.60
2018-02-16T08:50:30.187Z,2.60
2018-02-16T08:52:57.730Z,2.60
2018-02-16T08:55:25.267Z,2.70
2018-02-16T08:57:52.826Z,2.80
2018-02-16T09:00:20.363Z,2.80
2018-02-16T09:02:47.895Z,2.90
2018-02-16T09:05:15.447Z,2.90
2018-02-16T09:07:42.979Z,3.00
2018-02-16T09:10:10.533Z,3.00
2018-02-16T09:12:38.838Z,3.10
2018-02-16T09:15:06.395Z,3.10
2018-02-16T09:17:34.708Z,3.30
2018-02-16T09:20:02.259Z,3.20
2018-02-16T09:22:29.835Z,3.40
2018-02-16T09:24:58.140Z,3.50
2018-02-16T09:27:25.703Z,3.50
2018-02-16T09:29:54.001Z,3.60
2018-02-16T09:32:21.559Z,3.60
2018-02-16T09:34:49.870Z,3.80
2018-02-16T09:37:17.437Z,3.80
2018-02-16T09:39:48.057Z,3.90
2018-02-16T09:42:16.390Z,4.10
2018-02-16T09:44:43.927Z,4.00
2018-02-16T09:47:12.241Z,4.30
2018-02-16T09:49:39.816Z,4.30
2018-02-16T09:52:07.357Z,4.50
2018-02-16T09:54:35.670Z,4.50
2018-02-16T09:57:03.207Z,4.50
2018-02-16T09:59:31.527Z,4.50
2018-02-16T10:01:59.058Z,4.50
2018-02-16T10:04:26.616Z,4.50
2018-02-16T10:06:54.161Z,4.30
2018-02-16T10:09:21.728Z,4.30
2018-02-16T10:11:49.262Z,4.20
2018-02-16T10:14:17.611Z,4.20
2018-02-16T10:16:45.162Z,4.20
2018-02-16T10:19:12.696Z,4.20
2018-02-16T10:21:41.020Z,4.20
2018-02-16T10:24:08.560Z,4.20
2018-02-16T10:26:36.114Z,4.40
2018-02-16T10:29:03.644Z,4.40
2018-02-16T10:31:31.190Z,4.50
2018-02-16T10:33:58.726Z,4.50
2018-02-16T10:36:27.044Z,4.80
2018-02-16T10:38:54.577Z,4.70
2018-02-16T10:41:22.138Z,4.80
2018-02-16T10:43:49.680Z,4.90
2018-02-16T10:46:17.256Z,4.90
2018-02-16T10:48:45.555Z,5.00
2018-02-16T10:51:13.096Z,5.00
2018-02-16T10:53:40.656Z,5.20
2018-02-16T10:56:08.196Z,5.20
2018-02-16T10:58:35.760Z,5.10
2018-02-16T11:01:09.035Z,5.20
2018-02-16T11:03:38.369Z,5.50
2018-02-16T11:06:11.629Z,5.70
2018-02-16T11:08:53.534Z,5.60
2018-02-16T11:11:21.066Z,5.70
2018-02-16T11:13:48.611Z,5.70
2018-02-16T11:16:16.142Z,5.50
2018-02-16T11:18:43.703Z,5.10
2018-02-16T11:21:12.001Z,5.10
2018-02-16T11:23:40.328Z,5.30
2018-02-16T11:26:07.859Z,5.20
2018-02-16T11:28:35.435Z,5.40
2018-02-16T11:31:02.974Z,5.50
2018-02-16T11:33:30.546Z,5.50
2018-02-16T11:35:58.083Z,5.70
2018-02-16T11:38:25.635Z,5.60
2018-02-16T11:40:53.182Z,5.70
2018-02-16T11:43:21.493Z,5.90
2018-02-16T11:45:49.042Z,5.90
2018-02-16T11:48:16.584Z,6.00
2018-02-16T11:50:44.145Z,5.90
2018-02-16T11:53:11.676Z,6.10
2018-02-16T11:55:39.227Z,6.00
2018-02-16T11:58:06.784Z,5.90
2018-02-16T12:00:34.357Z,5.70
2018-02-16T12:03:01.920Z,5.60
2018-02-16T12:05:29.490Z,5.40
2018-02-16T12:07:57.026Z,5.40
2018-02-16T12:10:24.576Z,5.40
2018-02-16T12:12:52.138Z,5.70
2018-02-16T12:15:19.674Z,5.70
2018-02-16T12:17:47.227Z,5.60
2018-02-16T12:20:14.800Z,5.80
2018-02-16T12:22:42.361Z,5.80
2018-02-16T12:25:09.891Z,5.70
2018-02-16T12:27:37.455Z,5.60
2018-02-16T12:30:05.754Z,5.70
2018-02-16T12:32:33.313Z,5.70
2018-02-16T12:35:01.610Z,5.80
2018-02-16T12:37:29.955Z,5.80
2018-02-16T12:39:57.490Z,5.80
2018-02-16T12:42:25.021Z,5.60
2018-02-16T12:44:52.580Z,5.50
2018-02-16T12:47:20.120Z,5.30
2018-02-16T12:49:47.683Z,5.20
2018-02-16T12:52:15.242Z,5.10
2018-02-16T12:54:42.800Z,4.90
2018-02-16T12:57:11.099Z,4.70
2018-02-16T12:59:38.680Z,4.70
2018-02-16T13:02:06.219Z,4.80
2018-02-16T13:04:34.546Z,4.70
2018-02-16T13:07:02.094Z,4.70
2018-02-16T13:09:30.574Z,4.70
2018-02-16T13:11:58.889Z,5.00
2018-02-16T13:14:26.447Z,5.00
2018-02-16T13:16:54.748Z,5.60
2018-02-16T13:19:22.294Z,5.50
2018-02-16T13:21:50.602Z,5.60
2018-02-16T13:24:18.199Z,5.60
2018-02-16T13:26:45.726Z,5.80
2018-02-16T13:29:13.264Z,5.90
2018-02-16T13:31:40.828Z,6.10
2018-02-16T13:34:08.378Z,6.20
2018-02-16T13:36:35.926Z,6.00
2018-02-16T13:39:04.260Z,6.30
2018-02-16T13:41:31.818Z,6.20
2018-02-16T13:43:59.356Z,6.30
2018-02-16T13:46:27.673Z,6.20
2018-02-16T13:48:55.224Z,6.10
2018-02-16T13:51:22.788Z,6.00
2018-02-16T13:53:51.082Z,5.60
2018-02-16T13:56:18.639Z,5.60
2018-02-16T13:58:46.930Z,5.30
2018-02-16T14:01:15.262Z,5.30
2018-02-16T14:03:42.794Z,5.20
2018-02-16T14:06:11.138Z,5.20
2018-02-16T14:08:38.675Z,5.20
2018-02-16T14:11:06.202Z,5.10
2018-02-16T14:13:33.752Z,5.20
2018-02-16T14:16:01.278Z,5.50
2018-02-16T14:18:28.822Z,5.80
2018-02-16T14:20:56.350Z,6.10
2018-02-16T14:23:23.902Z,6.30
2018-02-16T14:25:51.430Z,6.10
2018-02-16T14:28:18.990Z,6.00
2018-02-16T14:30:46.528Z,5.70
2018-02-16T14:33:14.079Z,5.50
2018-02-16T14:35:41.619Z,5.20
2018-02-16T14:38:09.186Z,5.00
2018-02-16T14:40:36.714Z,4.90
2018-02-16T14:43:04.251Z,5.00
2018-02-16T14:45:32.579Z,5.20
2018-02-16T14:48:00.120Z,5.20
2018-02-16T14:50:27.674Z,5.30
2018-02-16T14:52:56.040Z,5.30
2018-02-16T14:55:23.546Z,5.30
2018-02-16T14:57:51.851Z,5.50
2018-02-16T15:00:19.404Z,5.50
2018-02-16T15:02:47.727Z,5.40
2018-02-16T15:05:15.298Z,5.40
2018-02-16T15:07:42.822Z,5.20
2018-02-16T15:10:11.134Z,4.90
2018-02-16T15:12:38.662Z,4.90
2018-02-16T15:15:06.226Z,4.70
2018-02-16T15:17:33.747Z,4.70
2018-02-16T15:20:02.074Z,4.70
2018-02-16T15:22:29.623Z,4.70
2018-02-16T15:24:57.168Z,4.60
2018-02-16T15:27:25.486Z,4.60
2018-02-16T15:29:53.034Z,4.60
2018-02-16T15:32:20.586Z,4.50
2018-02-16T15:34:48.122Z,4.40
2018-02-16T15:37:15.718Z,4.40
2018-02-16T15:39:43.317Z,4.30
2018-02-16T15:42:10.879Z,4.30
2018-02-16T15:44:39.220Z,4.20
2018-02-16T15:47:06.767Z,4.10
2018-02-16T15:49:34.325Z,4.10
2018-02-16T15:52:02.664Z,3.80
2018-02-16T15:54:30.194Z,3.80
2018-02-16T15:56:57.771Z,3.70
2018-02-16T15:59:25.310Z,3.70
2018-02-16T16:01:52.844Z,3.60
2018-02-16T16:04:20.403Z,3.50
2018-02-16T16:06:47.946Z,3.40
2018-02-16T16:09:16.270Z,3.20
2018-02-16T16:11:43.818Z,3.30
2018-02-16T16:14:11.498Z,3.10
2018-02-16T16:16:39.035Z,3.10
2018-02-16T16:19:07.410Z,2.80
2018-02-16T16:21:35.020Z,2.80
2018-02-16T16:24:02.612Z,2.80
2018-02-16T16:26:30.168Z,2.70
2018-02-16T16:28:57.727Z,2.80
2018-02-16T16:31:25.277Z,2.70
2018-02-16T16:33:52.839Z,2.70
2018-02-16T16:36:20.398Z,2.70
2018-02-16T16:38:47.978Z,2.60
2018-02-16T16:41:16.311Z,2.50
2018-02-16T16:43:43.953Z,2.60
2018-02-16T16:46:11.504Z,2.50
2018-02-16T16:48:39.044Z,2.50
2018-02-16T16:51:06.590Z,2.50
2018-02-16T16:53:34.882Z,2.50
2018-02-16T16:56:03.210Z,2.40
2018-02-16T16:58:30.846Z,2.40
2018-02-16T17:00:58.432Z,2.40
2018-02-16T17:03:25.967Z,2.40
2018-02-16T17:05:53.520Z,2.40
2018-02-16T17:08:21.043Z,2.40
2018-02-16T17:10:48.700Z,2.30
2018-02-16T17:13:16.279Z,2.30
2018-02-16T17:15:43.878Z,2.20
2018-02-16T17:18:11.504Z,2.20
2018-02-16T17:20:39.840Z,2.10
2018-02-16T17:23:07.387Z,2.10
2018-02-16T17:25:35.751Z,2.00
2018-02-16T17:28:03.356Z,2.00
2018-02-16T17:30:30.922Z,2.00
2018-02-16T17:32:58.471Z,2.00
2018-02-16T17:35:26.055Z,1.90
2018-02-16T17:37:54.365Z,1.90
2018-02-16T17:40:21.891Z,1.90
2018-02-16T17:42:49.442Z,1.80
2018-02-16T17:45:16.978Z,1.80
2018-02-16T17:47:44.523Z,1.90
2018-02-16T17:50:12.822Z,1.90
2018-02-16T17:52:41.139Z,1.90
2018-02-16T17:55:08.692Z,1.80
2018-02-16T17:57:36.242Z,1.90
2018-02-16T18:00:04.555Z,2.00
2018-02-16T18:02:32.224Z,2.00
2018-02-16T18:04:59.774Z,2.00
2018-02-16T18:07:28.080Z,2.00
2018-02-16T18:09:55.629Z,2.00
2018-02-16T18:12:23.160Z,2.00
2018-02-16T18:14:50.723Z,2.00
2018-02-16T18:17:18.258Z,2.00
2018-02-16T18:19:46.570Z,2.10
2018-02-16T18:22:14.095Z,2.10
2018-02-16T18:24:41.638Z,2.10
2018-02-16T18:27:09.943Z,2.20
2018-02-16T18:29:37.510Z,2.20
2018-02-16T18:32:05.042Z,2.30
2018-02-16T18:34:32.599Z,2.30
2018-02-16T18:37:00.152Z,2.30
2018-02-16T18:39:27.681Z,2.30
2018-02-16T18:41:55.279Z,2.30
2018-02-16T18:44:22.830Z,2.30
2018-02-16T18:46:50.414Z,2.30
2018-02-16T18:49:17.944Z,2.30
2018-02-16T18:51:45.539Z,2.20
2018-02-16T18:54:13.108Z,2.20
2018-02-16T18:56:40.654Z,2.10
2018-02-16T18:59:08.187Z,2.10
2018-02-16T19:01:35.743Z,2.10
2018-02-16T19:04:03.277Z,2.10
2018-02-16T19:06:30.887Z,2.00
2018-02-16T19:08:58.439Z,2.00
2018-02-16T19:11:26.087Z,2.00
2018-02-16T19:13:53.619Z,2.10
2018-02-16T19:16:21.240Z,2.10
2018-02-16T19:18:48.790Z,2.10
2018-02-16T19:21:16.322Z,2.10
2018-02-16T19:23:43.870Z,2.10
2018-02-16T19:26:11.397Z,2.10
2018-02-16T19:28:39.733Z,2.00
2018-02-16T19:31:07.669Z,2.00
2018-02-16T19:33:35.297Z,1.90
2018-02-16T19:36:03.191Z,1.90
2018-02-16T19:38:30.793Z,1.90
2018-02-16T19:40:59.478Z,1.80
2018-02-16T19:43:27.502Z,1.80
2018-02-16T19:45:55.091Z,1.80
2018-02-16T19:48:23.184Z,1.70
2018-02-16T19:50:50.823Z,1.70
2018-02-16T19:53:18.833Z,1.60
2018-02-16T19:55:46.446Z,1.50
2018-02-16T19:58:15.217Z,1.40
2018-02-16T20:00:42.859Z,1.40
2018-02-16T20:03:10.386Z,1.30
2018-02-16T20:05:38.403Z,1.30
2018-02-16T20:08:07.473Z,1.10
2018-02-16T20:10:35.605Z,1.10
2018-02-16T20:13:03.985Z,1.10
2018-02-16T20:15:31.542Z,1.10
2018-02-16T20:17:59.833Z,1.10
2018-02-16T20:20:27.385Z,1.00
2018-02-16T20:22:55.207Z,1.00
2018-02-16T20:25:22.803Z,1.00
2018-02-16T20:27:50.358Z,1.00
2018-02-16T20:30:17.911Z,0.90
2018-02-16T20:32:45.795Z,0.80
2018-02-16T20:35:13.589Z,0.80
2018-02-16T20:37:41.164Z,0.80
2018-02-16T20:40:08.722Z,0.70
2018-02-16T20:42:36.312Z,0.80
2018-02-16T20:45:03.843Z,0.80
2018-02-16T20:47:31.399Z,0.70
2018-02-16T20:49:59.874Z,0.70
2018-02-16T20:52:27.435Z,0.60
2018-02-16T20:54:54.976Z,0.60
2018-02-16T20:57:22.689Z,0.60
2018-02-16T20:59:50.290Z,0.60
2018-02-16T21:02:18.644Z,0.70
2018-02-16T21:04:46.246Z,0.60
2018-02-16T21:07:14.592Z,0.60
2018-02-16T21:09:42.135Z,0.60
2018-02-16T21:12:09.692Z,0.50
2018-02-16T21:14:37.227Z,0.50
2018-02-16T21:17:04.798Z,0.50
2018-02-16T21:19:32.326Z,0.50
2018-02-16T21:21:59.870Z,0.40
2018-02-16T21:24:27.427Z,0.40
2018-02-16T21:26:55.728Z,0.40
2018-02-16T21:29:24.335Z,0.40
2018-02-16T21:31:52.131Z,0.40
2018-02-16T21:34:20.006Z,0.40
2018-02-16T21:36:47.807Z,0.40
2018-02-16T21:39:16.419Z,0.40
2018-02-16T21:41:44.172Z,0.40
2018-02-16T21:44:12.129Z,0.40
2018-02-16T21:46:39.902Z,0.40
2018-02-16T21:49:08.449Z,0.30
2018-02-16T21:51:38.551Z,0.30
2018-02-16T21:54:06.205Z,0.30
2018-02-16T21:56:33.925Z,0.30
2018-02-16T21:59:01.644Z,0.30
2018-02-16T22:01:30.221Z,0.30
2018-02-16T22:03:58.057Z,0.30
2018-02-16T22:06:25.756Z,0.30
2018-02-16T22:08:53.494Z,0.30
2018-02-16T22:11:21.324Z,0.40
2018-02-16T22:13:48.962Z,0.40
2018-02-16T22:16:16.622Z,0.40
2018-02-16T22:18:44.447Z,0.40
2018-02-16T22:21:12.853Z,0.50
2018-02-16T22:23:41.236Z,0.50
2018-02-16T22:26:09.561Z,0.50
2018-02-16T22:28:37.167Z,0.50
2018-02-16T22:31:04.932Z,0.60
2018-02-16T22:33:33.553Z,0.60
2018-02-16T22:36:01.266Z,0.60
2018-02-16T22:38:28.983Z,0.60
2018-02-16T22:40:56.635Z,0.70
2018-02-16T22:43:24.383Z,0.70
2018-02-16T22:45:52.883Z,0.70
2018-02-16T22:48:20.712Z,0.70
2018-02-16T22:50:48.839Z,0.70
2018-02-16T22:53:17.441Z,0.70
2018-02-16T22:55:45.182Z,0.70
2018-02-16T22:58:13.593Z,0.80
2018-02-16T23:00:42.084Z,0.80
2018-02-16T23:03:10.653Z,0.80
2018-02-16T23:05:38.322Z,0.80
2018-02-16T23:08:06.022Z,0.80
2018-02-16T23:10:33.696Z,0.80
2018-02-16T23:13:01.505Z,0.90
2018-02-16T23:15:29.856Z,0.90
2018-02-16T23:17:57.410Z,0.90
2018-02-16T23:20:24.934Z,1.00
2018-02-16T23:22:53.262Z,1.10
2018-02-16T23:25:20.816Z,1.10
2018-02-16T23:27:48.375Z,1.10
2018-02-16T23:30:15.926Z,1.10
2018-02-16T23:32:44.217Z,1.10
2018-02-16T23:35:12.530Z,1.10
2018-02-16T23:37:40.069Z,1.10
2018-02-16T23:40:08.392Z,1.20
2018-02-16T23:42:35.867Z,1.10
2018-02-16T23:45:03.435Z,1.10
2018-02-16T23:47:30.975Z,1.20
2018-02-16T23:49:58.519Z,1.20
2018-02-16T23:52:26.082Z,1.20
2018-02-16T23:54:53.656Z,1.20
2018-02-16T23:57:21.951Z,1.10
2018-02-16T23:59:49.530Z,1.10
